Time;durP1;ratioP1;P1;durP2;ratioP2;P2;SDS_P1;SDS_P2;PMS_P1;PMS_P2;Temp;Humidity;BMP_temperature;BMP_pressure;BME280_temperature;BME280_humidity;BME280_pressure;Samples;Min_cycle;Max_cycle;Signal;HPM_P1;HPM_P2
2022/05/04 00:01:45;;;;;;;0.47;0.47;;;11.60;63.20;;;;;;5130121;27;20131;-61
2022/05/04 00:04:10;;;;;;;0.68;0.68;;;11.60;63.20;;;;;;5123280;27;20111;-65
2022/05/04 00:06:36;;;;;;;1.67;1.02;;;11.60;63.80;;;;;;5109269;28;20414;-61
2022/05/04 00:09:02;;;;;;;0.55;0.55;;;11.60;63.20;;;;;;5107910;27;20042;-61
2022/05/04 00:11:28;;;;;;;3.60;0.93;;;11.60;63.20;;;;;;5091672;28;20106;-61
2022/05/04 00:13:54;;;;;;;2.30;0.75;;;11.60;63.20;;;;;;5090713;28;20454;-65
2022/05/04 00:16:19;;;;;;;0.60;0.60;;;11.60;63.40;;;;;;5091152;28;20032;-65
2022/05/04 00:18:45;;;;;;;0.98;0.60;;;11.60;63.40;;;;;;5114215;27;20058;-61
2022/05/04 00:21:11;;;;;;;0.60;0.60;;;11.60;64.00;;;;;;5121979;27;20118;-60
2022/05/04 00:23:36;;;;;;;1.95;1.02;;;11.60;63.50;;;;;;5109061;28;20050;-61
2022/05/04 00:26:02;;;;;;;2.95;0.82;;;11.60;63.50;;;;;;5109182;28;20039;-60
2022/05/04 00:28:28;;;;;;;1.48;0.82;;;11.60;63.50;;;;;;5108583;28;20028;-61
2022/05/04 00:30:54;;;;;;;1.30;0.80;;;11.60;63.60;;;;;;5109719;28;20453;-65
2022/05/04 00:33:19;;;;;;;0.80;0.55;;;11.60;63.60;;;;;;5109865;28;20473;-65
2022/05/04 00:35:45;;;;;;;1.30;0.82;;;11.60;63.60;;;;;;5091346;28;20028;-60
2022/05/04 00:38:11;;;;;;;0.82;0.82;;;11.60;63.60;;;;;;5108347;28;20110;-61
2022/05/04 00:40:36;;;;;;;1.08;0.73;;;11.60;63.60;;;;;;5125391;28;20087;-61
2022/05/04 00:43:02;;;;;;;0.98;0.70;;;11.50;63.70;;;;;;5111702;28;20027;-65
2022/05/04 00:45:28;;;;;;;1.10;0.70;;;11.50;63.60;;;;;;5126660;28;20043;-65
2022/05/04 00:47:54;;;;;;;1.58;0.60;;;11.50;63.60;;;;;;5105937;28;20393;-65
2022/05/04 00:50:20;;;;;;;8.02;1.25;;;11.50;63.60;;;;;;5110054;28;20054;-61
2022/05/04 00:52:48;;;;;;;2.55;0.95;;;11.50;63.60;;;;;;5105004;28;20055;-61
2022/05/04 00:55:16;;;;;;;0.60;0.50;;;11.40;63.80;;;;;;5088557;28;20566;-61
2022/05/04 01:00:28;;;;;;;5.35;1.20;;;11.40;63.70;;;;;;5130077;28;20045;-60
2022/05/04 01:02:53;;;;;;;10.80;1.33;;;11.40;63.70;;;;;;5129321;28;20059;-60
2022/05/04 01:05:19;;;;;;;1.10;0.80;;;11.40;63.80;;;;;;5110379;28;20496;-61
2022/05/04 01:07:46;;;;;;;2.60;1.20;;;11.40;63.90;;;;;;5126734;28;20026;-61
2022/05/04 01:10:14;;;;;;;2.38;1.08;;;11.40;63.90;;;;;;5117877;28;20427;-61
2022/05/04 01:12:54;;;;;;;3.97;1.33;;;11.40;63.90;;;;;;5095410;28;20371;-61
2022/05/04 01:15:21;;;;;;;0.45;0.45;;;11.40;63.80;;;;;;5088636;28;20037;-61
2022/05/04 01:17:48;;;;;;;1.67;0.75;;;11.30;63.80;;;;;;5088097;28;20024;-61
2022/05/04 01:20:14;;;;;;;3.78;0.95;;;11.30;63.90;;;;;;5097970;28;20092;-61
2022/05/04 01:22:40;;;;;;;2.50;1.17;;;11.30;63.90;;;;;;5090352;28;20490;-61
2022/05/04 01:25:06;;;;;;;0.77;0.77;;;11.30;63.90;;;;;;5108812;28;20035;-61
2022/05/04 01:27:32;;;;;;;0.80;0.65;;;11.20;63.90;;;;;;5110621;28;20097;-61
2022/05/04 01:29:59;;;;;;;1.30;1.00;;;11.20;63.90;;;;;;5105562;27;20047;-61
2022/05/04 01:32:25;;;;;;;0.80;0.60;;;11.20;64.00;;;;;;5125069;27;20072;-61
2022/05/04 01:34:51;;;;;;;1.98;0.82;;;11.10;64.00;;;;;;5101347;27;20433;-61
2022/05/04 01:37:17;;;;;;;1.65;0.82;;;11.10;64.20;;;;;;5132824;27;20023;-61
2022/05/04 01:39:43;;;;;;;2.95;0.93;;;11.10;64.20;;;;;;5131527;27;20019;-61
2022/05/04 01:42:16;;;;;;;3.00;0.68;;;11.10;64.10;;;;;;5132996;27;20027;-65
2022/05/04 01:44:43;;;;;;;2.50;1.20;;;11.10;64.20;;;;;;5111360;27;20133;-65
2022/05/04 01:47:10;;;;;;;10.23;1.13;;;11.10;64.10;;;;;;5113474;27;20102;-65
2022/05/04 01:49:36;;;;;;;3.03;0.45;;;11.10;64.10;;;;;;5133572;27;20019;-65
2022/05/04 01:52:02;;;;;;;2.17;1.05;;;11.10;64.80;;;;;;5096140;28;20101;-65
2022/05/04 01:54:28;;;;;;;0.75;0.75;;;11.00;64.20;;;;;;5113290;28;20024;-65
2022/05/04 01:56:54;;;;;;;3.85;0.82;;;11.10;64.20;;;;;;5110787;28;20030;-65
2022/05/04 01:59:20;;;;;;;2.97;1.02;;;11.00;64.10;;;;;;5092011;28;20456;-65
2022/05/04 02:01:46;;;;;;;4.47;1.15;;;11.00;64.00;;;;;;5108130;27;20071;-65
2022/05/04 02:04:13;;;;;;;6.28;1.65;;;11.00;64.00;;;;;;5133364;27;20031;-65
2022/05/04 02:06:39;;;;;;;6.07;1.48;;;11.00;64.00;;;;;;5132459;27;20031;-65
2022/05/04 02:09:06;;;;;;;1.60;0.77;;;11.00;64.10;;;;;;5133096;27;20023;-65
2022/05/04 02:11:32;;;;;;;0.70;0.45;;;10.90;64.00;;;;;;5117116;27;20036;-65
2022/05/04 02:13:59;;;;;;;1.70;1.25;;;11.00;64.10;;;;;;5114307;27;20035;-65
2022/05/04 02:16:25;;;;;;;4.78;1.45;;;10.90;64.10;;;;;;5132328;27;20466;-65
2022/05/04 02:18:51;;;;;;;3.13;0.77;;;10.90;64.20;;;;;;5128651;27;20020;-65
2022/05/04 02:21:17;;;;;;;2.47;1.02;;;10.90;64.20;;;;;;5112647;28;20138;-65
2022/05/04 02:23:42;;;;;;;0.57;0.57;;;10.90;64.20;;;;;;5129716;27;20110;-65
2022/05/04 02:26:08;;;;;;;1.30;0.93;;;10.90;64.30;;;;;;5096908;27;20558;-65
2022/05/04 02:28:34;;;;;;;2.28;0.82;;;10.90;64.20;;;;;;5127875;27;20061;-65
2022/05/04 02:31:00;;;;;;;1.23;0.93;;;10.90;64.30;;;;;;5091712;28;20032;-65
2022/05/04 02:33:25;;;;;;;1.67;1.10;;;10.80;64.20;;;;;;5086500;28;20139;-65
2022/05/04 02:38:35;;;;;;;2.50;0.65;;;10.80;64.40;;;;;;5090323;28;20039;-65
2022/05/04 02:41:01;;;;;;;1.73;0.80;;;10.80;64.60;;;;;;5092205;28;20458;-65
2022/05/04 02:43:28;;;;;;;1.35;0.88;;;10.80;64.40;;;;;;5100466;27;20076;-65
2022/05/04 02:45:54;;;;;;;0.65;0.65;;;10.90;64.50;;;;;;5130997;27;20039;-65
2022/05/04 02:48:20;;;;;;;2.38;0.88;;;10.80;64.50;;;;;;5114151;27;20078;-65
2022/05/04 02:50:46;;;;;;;3.42;0.90;;;10.80;64.40;;;;;;5132801;27;20052;-61
2022/05/04 02:53:12;;;;;;;2.55;1.02;;;10.70;64.40;;;;;;5124240;27;20020;-61
2022/05/04 02:55:38;;;;;;;1.13;0.93;;;10.70;64.50;;;;;;5093127;28;20035;-61
2022/05/04 02:58:04;;;;;;;1.20;0.82;;;10.70;64.60;;;;;;5116248;27;20088;-61
2022/05/04 03:00:30;;;;;;;0.95;0.90;;;10.70;64.60;;;;;;5118963;27;20039;-61
2022/05/04 03:02:56;;;;;;;0.90;0.65;;;10.70;64.50;;;;;;5092450;28;20471;-60
2022/05/04 03:05:22;;;;;;;1.52;0.90;;;10.70;64.50;;;;;;5109554;27;20102;-61
2022/05/04 03:07:48;;;;;;;2.53;0.85;;;10.70;65.10;;;;;;5110690;28;20024;-61
2022/05/04 03:10:14;;;;;;;1.65;0.88;;;10.70;64.50;;;;;;5126164;27;20022;-61
2022/05/04 03:12:40;;;;;;;1.90;0.98;;;10.60;64.40;;;;;;5129909;27;20105;-61
2022/05/04 03:15:07;;;;;;;4.20;1.17;;;10.60;64.40;;;;;;5128552;27;20030;-65
2022/05/04 03:17:33;;;;;;;8.95;0.98;;;10.60;64.40;;;;;;5115285;27;20577;-65
2022/05/04 03:20:00;;;;;;;6.55;0.95;;;10.60;64.40;;;;;;5111836;28;20070;-65
2022/05/04 03:22:25;;;;;;;1.25;0.98;;;10.50;64.30;;;;;;5088706;28;20047;-61
2022/05/04 03:24:52;;;;;;;3.95;0.73;;;10.50;64.40;;;;;;5110526;28;20961;-61
2022/05/04 03:27:17;;;;;;;2.08;0.55;;;10.50;64.50;;;;;;5110151;28;20035;-60
2022/05/04 03:29:43;;;;;;;0.80;0.47;;;10.50;64.40;;;;;;5110213;28;20023;-65
2022/05/04 03:32:10;;;;;;;0.25;0.20;;;10.50;64.60;;;;;;5117147;27;20028;-65
2022/05/04 03:34:36;;;;;;;0.80;0.70;;;10.50;64.60;;;;;;5131588;27;20405;-65
2022/05/04 03:37:02;;;;;;;1.15;0.80;;;10.40;64.60;;;;;;5110287;28;20035;-65
2022/05/04 03:39:28;;;;;;;1.80;0.98;;;10.40;64.60;;;;;;5131706;27;20035;-61
2022/05/04 03:41:54;;;;;;;4.65;1.10;;;10.40;64.70;;;;;;5131472;27;20069;-61
2022/05/04 03:44:20;;;;;;;1.23;0.95;;;10.40;64.70;;;;;;5130371;27;20079;-61
2022/05/04 03:46:51;;;;;;;2.83;0.82;;;10.40;64.70;;;;;;5125574;27;20039;-65
2022/05/04 03:49:19;;;;;;;4.45;0.95;;;10.40;64.70;;;;;;5122987;27;20019;-60
2022/05/04 03:51:45;;;;;;;1.40;0.63;;;10.40;64.60;;;;;;5114037;27;20458;-60
2022/05/04 03:54:11;;;;;;;2.05;1.13;;;10.40;64.60;;;;;;5109912;28;20031;-61
2022/05/04 03:56:38;;;;;;;1.38;0.68;;;10.40;64.70;;;;;;5100321;28;20039;-61
2022/05/04 03:59:05;;;;;;;3.80;0.63;;;10.40;64.70;;;;;;5106320;27;20027;-60
2022/05/04 04:01:31;;;;;;;1.20;0.82;;;10.30;64.60;;;;;;5108769;28;20323;-61
2022/05/04 04:03:57;;;;;;;2.33;0.73;;;10.30;64.60;;;;;;5109686;28;20505;-64
2022/05/04 04:06:23;;;;;;;3.42;0.80;;;10.30;64.60;;;;;;5126850;27;20034;-65
2022/05/04 04:08:50;;;;;;;1.88;0.80;;;10.30;64.70;;;;;;5112729;27;20023;-60
2022/05/04 04:11:16;;;;;;;9.85;1.33;;;10.30;64.60;;;;;;5112574;27;20011;-60
2022/05/04 04:13:42;;;;;;;5.65;1.10;;;10.20;64.70;;;;;;5105920;28;20072;-60
2022/05/04 04:16:08;;;;;;;0.98;0.82;;;10.20;64.70;;;;;;5094613;28;20028;-65
2022/05/04 04:18:34;;;;;;;1.85;1.40;;;10.20;64.80;;;;;;5110130;28;20031;-65
2022/05/04 04:23:44;;;;;;;0.32;0.32;;;10.20;64.90;;;;;;5108612;28;20051;-64
2022/05/04 04:26:10;;;;;;;1.15;0.77;;;10.20;65.00;;;;;;5127667;27;20511;-64
2022/05/04 04:28:38;;;;;;;2.70;1.17;;;10.20;65.00;;;;;;5111164;28;20078;-64
2022/05/04 04:31:04;;;;;;;0.85;0.68;;;10.10;64.90;;;;;;5130958;28;20023;-64
2022/05/04 04:33:30;;;;;;;1.13;0.80;;;10.10;65.00;;;;;;5130832;28;20030;-64
2022/05/04 04:35:57;;;;;;;0.70;0.70;;;10.10;65.00;;;;;;5116947;28;20383;-60
2022/05/04 04:38:23;;;;;;;2.63;0.95;;;10.10;65.00;;;;;;5109404;28;20028;-64
2022/05/04 04:40:49;;;;;;;3.80;0.80;;;10.10;64.90;;;;;;5110002;28;20089;-60
2022/05/04 04:43:15;;;;;;;2.22;1.05;;;10.10;65.00;;;;;;5090992;28;20024;-60
2022/05/04 04:45:44;;;;;;;0.85;0.50;;;10.10;65.10;;;;;;5109341;28;20047;-60
2022/05/04 04:48:10;;;;;;;0.88;0.88;;;10.10;65.10;;;;;;5091961;28;20023;-64
2022/05/04 04:50:36;;;;;;;2.70;1.45;;;10.00;65.60;;;;;;5110041;28;20030;-64
2022/05/04 04:53:02;;;;;;;1.17;1.08;;;10.00;65.00;;;;;;5092240;28;20406;-64
2022/05/04 04:55:28;;;;;;;1.33;0.55;;;10.00;65.10;;;;;;5112754;28;20035;-65
2022/05/04 04:57:54;;;;;;;2.83;1.10;;;10.00;65.20;;;;;;5130147;28;20670;-65
2022/05/04 05:00:21;;;;;;;1.70;0.93;;;10.00;65.30;;;;;;5123033;28;20370;-64
2022/05/04 05:02:51;;;;;;;0.57;0.52;;;10.00;65.30;;;;;;5095124;28;20096;-65
2022/05/04 05:05:23;;;;;;;1.38;1.05;;;10.00;65.30;;;;;;5115289;28;20024;-65
2022/05/04 05:07:49;;;;;;;3.42;0.82;;;10.00;65.40;;;;;;5079594;28;20038;-64
2022/05/04 05:10:18;;;;;;;5.25;0.82;;;10.00;65.30;;;;;;5096069;28;20069;-64
2022/05/04 05:12:44;;;;;;;4.10;0.82;;;10.00;65.40;;;;;;5082744;27;20114;-64
2022/05/04 05:18:04;;;;;;;1.67;1.10;;;10.00;65.30;;;;;;5135056;27;20080;-64
2022/05/04 05:20:33;;;;;;;;;;;10.00;65.40;;;;;;5125560;27;20072;-64
2022/05/04 05:23:00;;;;;;;0.75;0.75;;;10.00;65.40;;;;;;5134489;27;20270;-64
2022/05/04 05:25:26;;;;;;;6.93;0.82;;;10.00;65.40;;;;;;5115610;27;20027;-60
2022/05/04 05:27:52;;;;;;;0.57;0.47;;;10.00;65.50;;;;;;5116961;27;20554;-64
2022/05/04 05:30:17;;;;;;;1.30;0.70;;;10.00;65.40;;;;;;5113460;27;20446;-64
2022/05/04 05:32:43;;;;;;;3.25;1.08;;;10.00;65.40;;;;;;5113502;28;20027;-64
2022/05/04 05:35:09;;;;;;;3.78;1.48;;;10.10;65.40;;;;;;5094837;28;20108;-64
2022/05/04 05:37:34;;;;;;;0.98;0.95;;;10.10;65.50;;;;;;5079327;27;20162;-64
2022/05/04 05:40:00;;;;;;;1.90;0.80;;;10.10;65.60;;;;;;5092645;28;20393;-64
2022/05/04 05:42:28;;;;;;;1.50;0.65;;;10.10;65.50;;;;;;5129632;27;20115;-64
2022/05/04 05:44:54;;;;;;;2.05;0.60;;;10.10;65.60;;;;;;5094886;28;20048;-64
2022/05/04 05:47:20;;;;;;;0.82;0.75;;;10.20;65.50;;;;;;5093469;28;20024;-64
2022/05/04 05:49:46;;;;;;;0.60;0.60;;;10.20;65.50;;;;;;5092896;28;20571;-64
2022/05/04 05:52:12;;;;;;;0.90;0.68;;;10.20;65.70;;;;;;5091659;28;20035;-64
2022/05/04 05:54:38;;;;;;;4.07;1.45;;;10.20;65.50;;;;;;5092846;28;20031;-64
2022/05/04 05:57:04;;;;;;;0.60;0.60;;;10.30;65.40;;;;;;5092753;28;20035;-64
2022/05/04 05:59:30;;;;;;;1.35;0.60;;;10.30;65.30;;;;;;5091474;28;20429;-64
2022/05/04 06:01:56;;;;;;;0.60;0.60;;;10.40;65.10;;;;;;5092481;28;20042;-64
2022/05/04 06:04:21;;;;;;;1.00;0.63;;;10.40;65.00;;;;;;5091314;28;20089;-64
2022/05/04 06:06:47;;;;;;;3.42;1.00;;;10.50;65.00;;;;;;5110683;28;20031;-59
2022/05/04 06:09:13;;;;;;;5.35;0.93;;;10.50;64.80;;;;;;5094141;28;20039;-60
2022/05/04 06:11:39;;;;;;;3.63;0.80;;;10.50;65.30;;;;;;5089380;28;20028;-59
2022/05/04 06:14:05;;;;;;;0.82;0.60;;;10.50;64.60;;;;;;5087772;28;20024;-64
2022/05/04 06:16:30;;;;;;;1.50;0.95;;;10.60;64.50;;;;;;5091648;28;20039;-64
2022/05/04 06:18:56;;;;;;;3.35;1.35;;;10.60;64.40;;;;;;5091716;28;20047;-64
2022/05/04 06:21:22;;;;;;;2.50;0.60;;;10.70;64.10;;;;;;5092523;28;20115;-64
2022/05/04 06:23:48;;;;;;;1.30;0.90;;;10.70;63.90;;;;;;5092671;28;20036;-64
2022/05/04 06:26:14;;;;;;;2.03;0.98;;;10.70;63.60;;;;;;5073739;28;20056;-64
2022/05/04 06:28:49;;;;;;;4.68;0.80;;;10.70;63.60;;;;;;5091958;28;20101;-64
2022/05/04 06:34:12;;;;;;;0.55;0.50;;;10.70;63.60;;;;;;5095864;28;20051;-64
2022/05/04 06:37:02;;;;;;;1.88;0.90;;;10.80;63.60;;;;;;5111690;28;20080;-64
2022/05/04 06:39:31;;;;;;;0.52;0.52;;;10.80;63.50;;;;;;5093343;27;20562;-64
2022/05/04 06:42:21;;;;;;;2.13;0.90;;;10.80;63.30;;;;;;5088848;28;20038;-64
2022/05/04 06:44:54;;;;;;;0.30;0.30;;;10.90;63.40;;;;;;5088245;28;20051;-62
2022/05/04 06:47:20;;;;;;;0.55;0.55;;;11.00;63.30;;;;;;5075924;28;20043;-62
2022/05/04 06:49:46;;;;;;;3.05;1.25;;;11.00;63.20;;;;;;5117807;27;20402;-62
2022/05/04 06:52:14;;;;;;;7.93;1.30;;;11.10;63.00;;;;;;5102481;27;20040;-62
2022/05/04 06:54:40;;;;;;;1.00;0.75;;;11.20;62.70;;;;;;5075636;28;20023;-63
2022/05/04 06:57:19;;;;;;;1.75;0.63;;;11.20;62.60;;;;;;5070075;28;20047;-63
2022/05/04 06:59:51;;;;;;;7.03;0.90;;;11.30;62.60;;;;;;5073634;28;20435;-62
2022/05/04 07:02:18;;;;;;;4.15;0.98;;;11.30;62.30;;;;;;5079478;28;20335;-63
2022/05/04 07:04:44;;;;;;;2.47;0.80;;;11.40;62.30;;;;;;5099598;27;20037;-62
2022/05/04 07:07:10;;;;;;;2.75;1.20;;;11.40;62.30;;;;;;5079739;28;20038;-63
2022/05/04 07:09:35;;;;;;;0.75;0.57;;;11.50;62.20;;;;;;5095986;27;20356;-62
2022/05/04 07:12:02;;;;;;;2.05;0.45;;;11.50;61.90;;;;;;5098469;28;20111;-62
2022/05/04 07:14:28;;;;;;;1.75;0.70;;;11.50;61.80;;;;;;5075995;28;20020;-62
2022/05/04 07:16:53;;;;;;;2.45;1.20;;;11.60;61.70;;;;;;5104690;27;20372;-62
2022/05/04 07:19:19;;;;;;;1.85;0.70;;;11.60;61.40;;;;;;5100425;28;20039;-60
2022/05/04 07:21:45;;;;;;;4.63;0.75;;;11.60;61.00;;;;;;5104048;27;20050;-59
2022/05/04 07:24:11;;;;;;;2.13;0.88;;;11.70;61.20;;;;;;5098246;27;20351;-59
2022/05/04 07:26:38;;;;;;;2.40;0.63;;;11.70;61.00;;;;;;5091864;28;20124;-60
2022/05/04 07:29:04;;;;;;;0.85;0.80;;;11.80;60.90;;;;;;5090421;28;20036;-60
2022/05/04 07:31:43;;;;;;;1.55;0.80;;;11.90;60.80;;;;;;5092238;27;20378;-60
2022/05/04 07:34:08;;;;;;;1.45;0.60;;;11.90;60.70;;;;;;5093938;27;20564;-60
2022/05/04 07:36:34;;;;;;;1.65;0.73;;;12.00;60.70;;;;;;5093052;28;20039;-60
2022/05/04 07:39:00;;;;;;;0.75;0.68;;;12.00;60.50;;;;;;5076705;28;20039;-60
2022/05/04 07:44:09;;;;;;;0.82;0.77;;;12.10;60.20;;;;;;5115299;27;20074;-60
2022/05/04 07:46:35;;;;;;;0.55;0.55;;;12.10;60.10;;;;;;5129790;27;20063;-60
2022/05/04 07:49:01;;;;;;;1.08;0.88;;;12.10;60.20;;;;;;5130377;27;20019;-60
2022/05/04 07:51:27;;;;;;;0.77;0.77;;;12.20;60.10;;;;;;5130770;27;20035;-61
2022/05/04 07:53:53;;;;;;;0.60;0.60;;;12.20;59.70;;;;;;5111490;27;20496;-60
2022/05/04 07:56:19;;;;;;;1.60;0.90;;;12.20;59.40;;;;;;5129927;27;20579;-60
2022/05/04 07:58:44;;;;;;;7.50;0.60;;;12.30;59.30;;;;;;5112430;27;20023;-61
2022/05/04 08:06:38;;;;;;;0.70;0.70;;;12.40;58.80;;;;;;5094633;28;20046;-64
2022/05/04 08:09:04;;;;;;;2.65;1.05;;;12.40;58.70;;;;;;5101192;28;20485;-64
2022/05/04 08:11:29;;;;;;;3.75;0.88;;;12.50;59.00;;;;;;5099492;28;20035;-64
2022/05/04 08:13:55;;;;;;;1.33;0.70;;;12.50;59.20;;;;;;5095416;28;20492;-64
2022/05/04 08:16:21;;;;;;;1.40;1.30;;;12.60;59.10;;;;;;5100186;28;20468;-64
2022/05/04 08:18:47;;;;;;;1.58;0.80;;;12.70;58.20;;;;;;5109469;28;20035;-64
2022/05/04 08:21:12;;;;;;;2.17;1.27;;;12.70;57.50;;;;;;5090512;28;20040;-64
2022/05/04 08:23:38;;;;;;;1.60;1.35;;;12.80;57.50;;;;;;5089064;28;20032;-61
2022/05/04 08:26:04;;;;;;;1.27;0.75;;;12.80;57.40;;;;;;5084557;27;20046;-64
2022/05/04 08:28:31;;;;;;;2.08;1.10;;;12.80;57.50;;;;;;5109618;27;20027;-64
2022/05/04 08:30:57;;;;;;;2.20;1.40;;;12.80;57.70;;;;;;5109595;28;20101;-63
2022/05/04 08:33:23;;;;;;;0.45;0.35;;;12.90;57.80;;;;;;5119761;28;20111;-64
2022/05/04 08:35:48;;;;;;;2.05;1.10;;;13.00;57.90;;;;;;5099788;28;20114;-61
2022/05/04 08:38:14;;;;;;;6.45;0.70;;;13.10;57.80;;;;;;5111773;28;20088;-61
2022/05/04 08:40:40;;;;;;;2.17;0.82;;;13.20;57.60;;;;;;5101337;27;20027;-64
2022/05/04 08:43:07;;;;;;;1.02;0.95;;;13.40;57.60;;;;;;5108813;28;20032;-61
2022/05/04 08:45:38;;;;;;;0.88;0.63;;;13.50;57.40;;;;;;5111844;27;20777;-60
2022/05/04 08:48:05;;;;;;;2.13;0.88;;;13.60;57.00;;;;;;5102625;28;20032;-61
2022/05/04 08:50:32;;;;;;;1.13;0.88;;;13.60;56.40;;;;;;5094040;28;20470;-64
2022/05/04 08:53:00;;;;;;;1.33;0.77;;;13.60;55.90;;;;;;5107348;27;20533;-61
2022/05/04 08:55:26;;;;;;;0.95;0.52;;;13.60;55.70;;;;;;5133536;27;20424;-60
2022/05/04 08:57:54;;;;;;;1.15;0.93;;;13.60;56.00;;;;;;5101451;28;20031;-63
2022/05/04 09:00:20;;;;;;;0.57;0.47;;;13.70;55.60;;;;;;5111959;28;20031;-63
2022/05/04 09:02:46;;;;;;;0.93;0.70;;;13.80;55.30;;;;;;5097067;28;20032;-64
2022/05/04 09:05:23;;;;;;;1.33;0.40;;;13.80;55.20;;;;;;5102835;28;20051;-64
2022/05/04 09:07:51;;;;;;;3.92;1.10;;;13.80;54.50;;;;;;5107590;28;20652;-63
2022/05/04 09:10:34;;;;;;;0.95;0.68;;;13.90;54.70;;;;;;5084905;28;20028;-60
2022/05/04 09:13:00;;;;;;;2.47;0.70;;;13.90;54.60;;;;;;5105906;28;20496;-61
2022/05/04 09:15:34;;;;;;;1.42;0.68;;;13.90;53.80;;;;;;5110187;28;20489;-64
2022/05/04 09:18:09;;;;;;;0.65;0.50;;;14.00;54.10;;;;;;5109070;28;20028;-61
2022/05/04 09:20:48;;;;;;;2.72;1.20;;;14.00;54.30;;;;;;5108582;28;20428;-60
2022/05/04 09:23:20;;;;;;;0.45;0.40;;;14.20;54.50;;;;;;5110817;28;20034;-61
2022/05/04 09:25:54;;;;;;;1.20;0.95;;;14.30;54.50;;;;;;5110482;28;20466;-60
2022/05/04 09:28:20;;;;;;;0.52;0.47;;;14.50;54.40;;;;;;5093153;28;20116;-61
2022/05/04 09:30:51;;;;;;;1.88;0.60;;;14.60;53.80;;;;;;5112236;28;20494;-63
2022/05/04 09:33:22;;;;;;;1.23;0.80;;;14.70;53.50;;;;;;5112344;28;20388;-64
2022/05/04 09:35:49;;;;;;;0.73;0.50;;;14.70;53.00;;;;;;5112015;28;20126;-64
2022/05/04 09:46:42;;;;;;;0.90;0.68;;;15.00;52.60;;;;;;5091118;28;20051;-63
2022/05/04 09:49:18;;;;;;;0.95;0.80;;;15.00;51.80;;;;;;5110179;27;20039;-64
2022/05/04 09:51:53;;;;;;;0.80;0.57;;;15.00;51.60;;;;;;5090773;28;20028;-64
2022/05/04 09:54:27;;;;;;;0.63;0.60;;;15.10;51.60;;;;;;5091771;28;20264;-64
2022/05/04 09:57:02;;;;;;;0.95;0.90;;;15.20;50.80;;;;;;5090952;28;20336;-63
2022/05/04 09:59:30;;;;;;;0.82;0.73;;;15.20;51.20;;;;;;5103308;27;20130;-64
2022/05/04 10:01:58;;;;;;;2.97;0.88;;;15.30;51.40;;;;;;5119092;27;20055;-60
2022/05/04 10:04:27;;;;;;;1.13;0.85;;;15.40;51.70;;;;;;5123759;27;20031;-61
2022/05/04 10:06:55;;;;;;;0.68;0.50;;;15.60;51.20;;;;;;5098188;27;20031;-64
2022/05/04 10:09:23;;;;;;;3.00;0.93;;;15.70;51.20;;;;;;5111157;27;20114;-64
2022/05/04 10:11:57;;;;;;;1.38;0.88;;;15.80;50.90;;;;;;5111796;28;20047;-64
2022/05/04 10:14:23;;;;;;;0.75;0.73;;;16.00;50.40;;;;;;5109577;27;20436;-64
2022/05/04 10:16:59;;;;;;;1.67;0.63;;;16.00;50.30;;;;;;5111092;28;20406;-64
2022/05/04 10:19:38;;;;;;;2.17;1.13;;;16.00;49.90;;;;;;5092275;27;20104;-64
2022/05/04 10:22:09;;;;;;;1.30;0.90;;;16.10;49.20;;;;;;5111436;28;20390;-64
2022/05/04 10:24:35;;;;;;;0.50;0.40;;;16.10;49.30;;;;;;5111763;27;20052;-64
2022/05/04 10:27:23;;;;;;;0.60;0.50;;;16.20;49.70;;;;;;5105722;28;20057;-64
2022/05/04 10:32:45;;;;;;;3.03;0.63;;;16.40;49.20;;;;;;5126070;27;20050;-64
2022/05/04 10:35:17;;;;;;;0.65;0.65;;;16.60;49.40;;;;;;5131505;27;20035;-64
2022/05/04 10:37:58;;;;;;;1.10;0.68;;;16.80;49.10;;;;;;5131504;27;20075;-64
2022/05/04 10:40:36;;;;;;;1.75;0.90;;;16.80;48.80;;;;;;5130105;27;20027;-64
2022/05/04 10:43:09;;;;;;;0.57;0.52;;;16.90;48.70;;;;;;5107465;27;20062;-61
2022/05/04 10:45:36;;;;;;;1.38;1.02;;;16.90;47.90;;;;;;5088780;28;20134;-61
2022/05/04 10:48:20;;;;;;;1.13;0.90;;;16.80;47.60;;;;;;5108562;28;20382;-60
2022/05/04 10:50:55;;;;;;;0.93;0.75;;;16.90;46.60;;;;;;5110562;28;20486;-64
2022/05/04 10:53:24;;;;;;;1.25;0.82;;;16.80;47.00;;;;;;5092443;28;20066;-64
2022/05/04 10:56:09;;;;;;;0.98;0.55;;;16.80;46.80;;;;;;5092484;28;20035;-64
2022/05/04 10:58:55;;;;;;;0.60;0.60;;;16.90;46.80;;;;;;5110362;28;20411;-64
2022/05/04 11:01:30;;;;;;;1.50;0.60;;;16.90;46.40;;;;;;5086855;28;20349;-64
2022/05/04 11:04:11;;;;;;;0.70;0.70;;;17.00;46.20;;;;;;5109865;27;20113;-64
2022/05/04 11:06:58;;;;;;;0.50;0.50;;;17.10;46.00;;;;;;5114660;27;20055;-64
2022/05/04 11:09:32;;;;;;;2.90;0.98;;;17.10;45.40;;;;;;5110268;28;20450;-64
2022/05/04 11:12:00;;;;;;;1.73;0.88;;;17.20;45.60;;;;;;5114599;27;20015;-60
2022/05/04 11:14:26;;;;;;;1.85;1.17;;;17.30;44.90;;;;;;5109041;28;20658;-64
2022/05/04 11:16:53;;;;;;;4.15;1.25;;;17.40;44.80;;;;;;5112419;27;20036;-64
2022/05/04 11:19:23;;;;;;;1.40;0.80;;;17.30;44.70;;;;;;5109864;28;20075;-64
2022/05/04 11:21:48;;;;;;;0.82;0.55;;;17.40;45.00;;;;;;5116360;27;20498;-64
2022/05/04 11:24:15;;;;;;;1.40;0.70;;;17.50;44.90;;;;;;5120924;27;20024;-64
2022/05/04 11:26:50;;;;;;;14.55;7.53;;;17.60;44.70;;;;;;5097383;27;20095;-64
2022/05/04 11:29:18;;;;;;;7.97;3.20;;;17.70;43.90;;;;;;5112457;27;20030;-64
2022/05/04 11:31:44;;;;;;;2.50;1.60;;;17.70;44.60;;;;;;5096477;28;20024;-64
2022/05/04 11:34:17;;;;;;;1.50;0.90;;;17.90;44.70;;;;;;5109817;28;20031;-64
2022/05/04 11:36:44;;;;;;;;;;;17.90;44.40;;;;;;5097132;28;20482;-64
2022/05/04 11:39:12;;;;;;;0.93;0.80;;;18.00;44.90;;;;;;5109211;28;19927;-64
2022/05/04 11:41:38;;;;;;;3.88;0.88;;;18.10;44.10;;;;;;5104658;28;20039;-64
2022/05/04 11:44:05;;;;;;;0.80;0.80;;;18.20;43.50;;;;;;5090688;28;20035;-64
2022/05/04 11:46:31;;;;;;;1.88;0.88;;;18.30;42.40;;;;;;5109976;28;20366;-64
2022/05/04 11:48:58;;;;;;;0.70;0.60;;;18.30;42.30;;;;;;5083851;28;20486;-64
2022/05/04 11:51:24;;;;;;;1.50;0.80;;;18.30;42.30;;;;;;5103119;28;20479;-63
2022/05/04 11:53:49;;;;;;;1.75;0.50;;;18.30;43.70;;;;;;5102646;28;20024;-64
2022/05/04 11:56:15;;;;;;;0.63;0.57;;;18.40;43.00;;;;;;5072116;28;20324;-64
2022/05/04 11:58:42;;;;;;;0.70;0.70;;;18.50;42.80;;;;;;5110531;27;20430;-64
2022/05/04 12:01:08;;;;;;;3.15;0.80;;;18.70;43.30;;;;;;5102741;28;20024;-64
2022/05/04 12:03:37;;;;;;;0.93;0.73;;;18.90;43.20;;;;;;5108699;27;20059;-64
2022/05/04 12:06:09;;;;;;;1.63;0.98;;;19.10;43.30;;;;;;5104264;27;20036;-60
2022/05/04 12:08:36;;;;;;;0.93;0.82;;;19.30;42.40;;;;;;5116947;27;20024;-60
2022/05/04 12:11:04;;;;;;;0.88;0.70;;;19.30;42.50;;;;;;5098791;27;20637;-60
2022/05/04 12:13:30;;;;;;;1.10;1.00;;;19.40;42.40;;;;;;5116080;27;20398;-60
2022/05/04 12:15:58;;;;;;;1.25;0.98;;;19.30;41.90;;;;;;5108059;28;20515;-60
2022/05/04 12:18:32;;;;;;;3.55;0.90;;;19.40;42.20;;;;;;5095232;28;20410;-61
2022/05/04 12:21:08;;;;;;;0.80;0.80;;;19.40;40.60;;;;;;5113632;27;20024;-61
2022/05/04 12:23:40;;;;;;;1.85;1.17;;;19.40;41.60;;;;;;5106498;27;20172;-61
2022/05/04 12:26:07;;;;;;;0.77;0.75;;;19.60;42.00;;;;;;5091475;28;20114;-61
2022/05/04 12:28:33;;;;;;;1.38;1.23;;;19.80;42.40;;;;;;5087279;28;20039;-61
2022/05/04 12:33:44;;;;;;;1.27;1.08;;;20.10;41.80;;;;;;5122495;27;20101;-61
2022/05/04 12:36:12;;;;;;;13.68;1.65;;;20.10;41.10;;;;;;5116119;28;20501;-60
2022/05/04 12:38:45;;;;;;;1.67;1.27;;;20.20;40.80;;;;;;5099543;28;20059;-60
2022/05/04 12:41:12;;;;;;;1.90;1.30;;;20.10;40.20;;;;;;5095694;28;20479;-61
2022/05/04 12:43:38;;;;;;;1.33;1.20;;;20.10;39.70;;;;;;5095532;28;20028;-61
2022/05/04 12:46:08;;;;;;;1.50;1.13;;;20.10;39.90;;;;;;5107490;28;20056;-61
2022/05/04 12:48:38;;;;;;;3.90;1.02;;;20.10;40.40;;;;;;5117318;28;20023;-61
2022/05/04 12:51:04;;;;;;;0.85;0.70;;;20.30;40.90;;;;;;5107888;28;20038;-64
2022/05/04 12:53:30;;;;;;;0.70;0.70;;;20.50;40.70;;;;;;5108170;28;20038;-64
2022/05/04 12:58:40;;;;;;;3.40;0.90;;;20.80;40.40;;;;;;5106789;28;20062;-60
2022/05/04 13:01:06;;;;;;;1.95;1.20;;;20.90;39.50;;;;;;5089766;28;20031;-60
2022/05/04 13:03:33;;;;;;;1.65;1.17;;;21.00;38.60;;;;;;5107420;28;20497;-61
2022/05/04 13:05:59;;;;;;;1.55;1.02;;;21.00;38.10;;;;;;5107594;28;20031;-61
2022/05/04 13:08:25;;;;;;;1.85;1.00;;;20.90;38.00;;;;;;5107901;28;20019;-61
2022/05/04 13:10:52;;;;;;;1.02;0.85;;;20.90;37.80;;;;;;5089457;28;20464;-61
2022/05/04 13:13:19;;;;;;;1.13;0.93;;;20.90;37.80;;;;;;5092123;28;20515;-64
2022/05/04 13:15:51;;;;;;;0.80;0.80;;;20.90;37.00;;;;;;5052512;28;20477;-64
2022/05/04 13:18:18;;;;;;;0.88;0.73;;;20.80;36.90;;;;;;5104282;28;20024;-64
2022/05/04 13:20:43;;;;;;;2.80;0.80;;;21.00;37.80;;;;;;5108382;28;20039;-64
2022/05/04 13:23:09;;;;;;;1.52;1.10;;;21.20;37.90;;;;;;5108764;28;20046;-64
2022/05/04 13:25:36;;;;;;;4.28;0.82;;;21.50;38.10;;;;;;5111259;28;20367;-60
2022/05/04 13:28:03;;;;;;;1.08;1.00;;;21.80;38.00;;;;;;5111403;28;20030;-64
2022/05/04 13:30:29;;;;;;;1.10;0.70;;;21.90;37.60;;;;;;5111112;28;20020;-64